sensor_id;sensor_type;location;lat;lon;timestamp;pressure;altitude;pressure_sealevel;temperature;humidity
46946;BME280;32679;40.810;14.498;2023-10-13T00:01:42;100720.59;;;19.42;100.00
46946;BME280;32679;40.810;14.498;2023-10-13T00:04:07;100723.78;;;19.51;100.00
46946;BME280;32679;40.810;14.498;2023-10-13T00:06:33;100702.53;;;19.28;100.00
46946;BME280;32679;40.810;14.498;2023-10-13T00:08:58;100731.88;;;19.45;100.00
46946;BME280;32679;40.810;14.498;2023-10-13T00:11:24;100732.31;;;19.40;100.00
46946;BME280;32679;40.810;14.498;2023-10-13T00:13:52;100727.47;;;19.41;100.00
46946;BME280;32679;40.810;14.498;2023-10-13T00:16:20;100742.38;;;19.45;100.00
46946;BME280;32679;40.810;14.498;2023-10-13T00:18:52;100734.69;;;19.45;100.00
46946;BME280;32679;40.810;14.498;2023-10-13T00:21:23;100728.25;;;19.45;100.00
46946;BME280;32679;40.810;14.498;2023-10-13T00:23:59;100726.19;;;19.49;100.00
46946;BME280;32679;40.810;14.498;2023-10-13T00:26:31;100720.59;;;19.42;100.00
46946;BME280;32679;40.810;14.498;2023-10-13T00:29:02;100710.94;;;19.39;100.00
46946;BME280;32679;40.810;14.498;2023-10-13T00:31:54;100698.81;;;19.42;100.00
46946;BME280;32679;40.810;14.498;2023-10-13T00:34:19;100703.72;;;19.34;100.00
46946;BME280;32679;40.810;14.498;2023-10-13T00:36:50;100733.84;;;19.59;100.00
46946;BME280;32679;40.810;14.498;2023-10-13T00:39:34;100732.19;;;19.58;100.00
46946;BME280;32679;40.810;14.498;2023-10-13T00:42:02;100723.78;;;19.51;100.00
46946;BME280;32679;40.810;14.498;2023-10-13T00:44:32;100732.63;;;19.60;100.00
46946;BME280;32679;40.810;14.498;2023-10-13T00:47:09;100675.94;;;19.29;100.00
46946;BME280;32679;40.810;14.498;2023-10-13T00:49:36;100727.75;;;19.71;100.00
46946;BME280;32679;40.810;14.498;2023-10-13T00:52:07;100713.66;;;19.64;100.00
46946;BME280;32679;40.810;14.498;2023-10-13T00:54:36;100717.25;;;19.68;100.00
46946;BME280;32679;40.810;14.498;2023-10-13T00:57:03;100722.84;;;19.75;100.00
46946;BME280;32679;40.810;14.498;2023-10-13T00:59:52;100726.09;;;19.77;100.00
46946;BME280;32679;40.810;14.498;2023-10-13T01:02:19;100701.13;;;19.65;100.00
46946;BME280;32679;40.810;14.498;2023-10-13T01:05:11;100738.13;;;19.85;100.00
46946;BME280;32679;40.810;14.498;2023-10-13T01:07:45;100740.50;;;19.94;100.00
46946;BME280;32679;40.810;14.498;2023-10-13T01:10:15;100722.84;;;19.82;100.00
46946;BME280;32679;40.810;14.498;2023-10-13T01:12:41;100740.50;;;19.94;100.00
46946;BME280;32679;40.810;14.498;2023-10-13T01:15:11;100731.66;;;19.88;100.00
46946;BME280;32679;40.810;14.498;2023-10-13T01:17:41;100733.25;;;19.93;100.00
46946;BME280;32679;40.810;14.498;2023-10-13T01:20:10;100729.22;;;19.86;100.00
46946;BME280;32679;40.810;14.498;2023-10-13T01:22:37;100741.31;;;19.91;100.00
46946;BME280;32679;40.810;14.498;2023-10-13T01:25:04;100732.91;;;19.83;100.00
46946;BME280;32679;40.810;14.498;2023-10-13T01:27:36;100747.38;;;19.93;100.00
46946;BME280;32679;40.810;14.498;2023-10-13T01:30:04;100752.53;;;20.01;100.00
46946;BME280;32679;40.810;14.498;2023-10-13T01:32:38;100754.13;;;20.09;100.00
46946;BME280;32679;40.810;14.498;2023-10-13T01:35:07;100751.31;;;20.06;100.00
46946;BME280;32679;40.810;14.498;2023-10-13T01:37:32;100750.09;;;20.07;100.00
46946;BME280;32679;40.810;14.498;2023-10-13T01:39:58;100738.84;;;19.96;100.00
46946;BME280;32679;40.810;14.498;2023-10-13T01:42:23;100751.69;;;20.08;100.00
46946;BME280;32679;40.810;14.498;2023-10-13T01:44:50;100754.91;;;20.10;100.00
46946;BME280;32679;40.810;14.498;2023-10-13T01:47:16;100758.97;;;20.09;100.00
46946;BME280;32679;40.810;14.498;2023-10-13T01:49:42;100750.06;;;20.14;100.00
46946;BME280;32679;40.810;14.498;2023-10-13T01:52:13;100756.91;;;20.13;100.00
46946;BME280;32679;40.810;14.498;2023-10-13T01:54:47;100743.63;;;20.10;100.00
46946;BME280;32679;40.810;14.498;2023-10-13T01:57:14;100742.78;;;20.13;100.00
46946;BME280;32679;40.810;14.498;2023-10-13T01:59:43;100750.44;;;20.12;100.00
46946;BME280;32679;40.810;14.498;2023-10-13T02:02:12;100751.28;;;20.09;100.00
46946;BME280;32679;40.810;14.498;2023-10-13T02:04:41;100750.06;;;20.14;100.00
46946;BME280;32679;40.810;14.498;2023-10-13T02:07:26;100743.69;;;20.03;100.00
46946;BME280;32679;40.810;14.498;2023-10-13T02:10:00;100750.88;;;20.07;100.00
46946;BME280;32679;40.810;14.498;2023-10-13T02:12:29;100756.13;;;20.09;100.00
46946;BME280;32679;40.810;14.498;2023-10-13T02:15:02;100752.47;;;20.12;100.00
46946;BME280;32679;40.810;14.498;2023-10-13T02:17:30;100740.78;;;20.10;100.00
46946;BME280;32679;40.810;14.498;2023-10-13T02:20:09;100732.41;;;19.99;100.00
46946;BME280;32679;40.810;14.498;2023-10-13T02:22:41;100731.19;;;19.97;100.00
46946;BME280;32679;40.810;14.498;2023-10-13T02:25:20;100733.97;;;20.04;100.00
46946;BME280;32679;40.810;14.498;2023-10-13T02:28:01;100725.97;;;19.95;100.00
46946;BME280;32679;40.810;14.498;2023-10-13T02:30:27;100740.00;;;20.06;100.00
46946;BME280;32679;40.810;14.498;2023-10-13T02:32:52;100738.84;;;20.00;100.00
46946;BME280;32679;40.810;14.498;2023-10-13T02:35:19;100743.69;;;20.03;100.00
46946;BME280;32679;40.810;14.498;2023-10-13T02:37:54;100736.44;;;19.98;100.00
46946;BME280;32679;40.810;14.498;2023-10-13T02:40:21;100725.59;;;19.86;100.00
46946;BME280;32679;40.810;14.498;2023-10-13T02:42:48;100742.91;;;19.92;100.00
46946;BME280;32679;40.810;14.498;2023-10-13T02:45:14;100730.06;;;19.83;100.00
46946;BME280;32679;40.810;14.498;2023-10-13T02:47:40;100725.72;;;19.68;100.00
46946;BME280;32679;40.810;14.498;2023-10-13T02:50:09;100744.63;;;19.82;100.00
46946;BME280;32679;40.810;14.498;2023-10-13T02:52:37;100742.63;;;19.75;100.00
46946;BME280;32679;40.810;14.498;2023-10-13T02:55:09;100743.84;;;19.74;100.00
46946;BME280;32679;40.810;14.498;2023-10-13T02:57:38;100743.91;;;19.63;100.00
46946;BME280;32679;40.810;14.498;2023-10-13T03:00:07;100742.31;;;19.55;100.00
46946;BME280;32679;40.810;14.498;2023-10-13T03:02:39;100735.88;;;19.48;100.00
46946;BME280;32679;40.810;14.498;2023-10-13T03:05:09;100727.03;;;19.38;100.00
46946;BME280;32679;40.810;14.498;2023-10-13T03:07:35;100724.72;;;19.19;100.00
46946;BME280;32679;40.810;14.498;2023-10-13T03:10:04;100703.03;;;18.98;100.00
46946;BME280;32679;40.810;14.498;2023-10-13T03:12:37;100689.38;;;18.90;100.00
46946;BME280;32679;40.810;14.498;2023-10-13T03:15:06;100733.56;;;19.25;100.00
46946;BME280;32679;40.810;14.498;2023-10-13T03:17:46;100704.63;;;19.06;100.00
46946;BME280;32679;40.810;14.498;2023-10-13T03:20:13;100726.31;;;19.24;100.00
46946;BME280;32679;40.810;14.498;2023-10-13T03:22:44;100727.13;;;19.17;100.00
46946;BME280;32679;40.810;14.498;2023-10-13T03:25:11;100727.94;;;19.21;100.00
46946;BME280;32679;40.810;14.498;2023-10-13T03:27:43;100719.50;;;19.14;100.00
46946;BME280;32679;40.810;14.498;2023-10-13T03:30:14;100722.31;;;19.14;100.00
46946;BME280;32679;40.810;14.498;2023-10-13T03:32:43;100726.34;;;19.20;100.00
46946;BME280;32679;40.810;14.498;2023-10-13T03:35:12;100703.81;;;19.06;100.00
46946;BME280;32679;40.810;14.498;2023-10-13T03:37:54;100723.13;;;19.18;100.00
46946;BME280;32679;40.810;14.498;2023-10-13T03:40:20;100727.13;;;19.17;100.00
46946;BME280;32679;40.810;14.498;2023-10-13T03:42:46;100727.13;;;19.17;100.00
46946;BME280;32679;40.810;14.498;2023-10-13T03:48:15;100723.53;;;19.13;100.00
46946;BME280;32679;40.810;14.498;2023-10-13T03:50:56;100727.16;;;19.10;100.00
46946;BME280;32679;40.810;14.498;2023-10-13T03:53:41;100724.34;;;19.10;100.00
46946;BME280;32679;40.810;14.498;2023-10-13T03:56:23;100730.81;;;19.07;100.00
46946;BME280;32679;40.810;14.498;2023-10-13T03:58:53;100733.22;;;19.08;100.00
46946;BME280;32679;40.810;14.498;2023-10-13T04:01:41;100719.56;;;18.93;100.00
46946;BME280;32679;40.810;14.498;2023-10-13T04:04:28;100731.28;;;18.88;100.00
46946;BME280;32679;40.810;14.498;2023-10-13T04:07:03;100723.59;;;18.84;100.00
46946;BME280;32679;40.810;14.498;2023-10-13T04:09:38;100722.00;;;18.87;100.00
46946;BME280;32679;40.810;14.498;2023-10-13T04:12:08;100726.03;;;18.82;100.00
46946;BME280;32679;40.810;14.498;2023-10-13T04:14:40;100727.25;;;18.74;100.00
46946;BME280;32679;40.810;14.498;2023-10-13T04:17:25;100721.63;;;18.74;100.00
46946;BME280;32679;40.810;14.498;2023-10-13T04:19:56;100711.97;;;18.72;100.00
46946;BME280;32679;40.810;14.498;2023-10-13T04:22:33;100717.63;;;18.75;100.00
46946;BME280;32679;40.810;14.498;2023-10-13T04:25:24;100723.22;;;18.79;100.00
46946;BME280;32679;40.810;14.498;2023-10-13T04:28:12;100727.25;;;18.78;100.00
46946;BME280;32679;40.810;14.498;2023-10-13T04:30:58;100723.22;;;18.79;100.00
46946;BME280;32679;40.810;14.498;2023-10-13T04:33:33;100724.03;;;18.72;100.00
46946;BME280;32679;40.810;14.498;2023-10-13T04:39:01;100695.06;;;18.61;100.00
46946;BME280;32679;40.810;14.498;2023-10-13T04:41:31;100720.00;;;18.77;100.00
46946;BME280;32679;40.810;14.498;2023-10-13T04:43:58;100716.78;;;18.86;100.00
46946;BME280;32679;40.810;14.498;2023-10-13T04:46:31;100727.25;;;18.78;100.00
46946;BME280;32679;40.810;14.498;2023-10-13T04:49:11;100726.06;;;18.75;100.00
46946;BME280;32679;40.810;14.498;2023-10-13T04:52:00;100727.66;;;18.83;100.00
46946;BME280;32679;40.810;14.498;2023-10-13T04:54:44;100720.00;;;18.73;100.00
46946;BME280;32679;40.810;14.498;2023-10-13T04:57:20;100701.88;;;18.64;100.00
46946;BME280;32679;40.810;14.498;2023-10-13T05:00:21;100725.25;;;18.71;100.00
46946;BME280;32679;40.810;14.498;2023-10-13T05:02:47;100709.94;;;18.65;100.00
46946;BME280;32679;40.810;14.498;2023-10-13T05:05:24;100708.75;;;18.59;100.00
46946;BME280;32679;40.810;14.498;2023-10-13T05:07:50;100717.59;;;18.61;100.00
46946;BME280;32679;40.810;14.498;2023-10-13T05:10:35;100734.53;;;18.75;100.00
46946;BME280;32679;40.810;14.498;2023-10-13T05:13:30;100732.09;;;18.67;100.00
46946;BME280;32679;40.810;14.498;2023-10-13T05:16:14;100717.59;;;18.61;100.00
46946;BME280;32679;40.810;14.498;2023-10-13T05:18:58;100744.59;;;18.76;100.00
46946;BME280;32679;40.810;14.498;2023-10-13T05:21:42;100744.56;;;18.83;100.00
46946;BME280;32679;40.810;14.498;2023-10-13T05:24:26;100703.91;;;18.56;100.00
46946;BME280;32679;40.810;14.498;2023-10-13T05:27:10;100713.19;;;18.60;100.00
46946;BME280;32679;40.810;14.498;2023-10-13T05:29:54;100762.66;;;18.90;100.00
46946;BME280;32679;40.810;14.498;2023-10-13T05:32:40;100756.19;;;19.00;100.00
46946;BME280;32679;40.810;14.498;2023-10-13T05:35:24;100757.31;;;19.27;100.00
46946;BME280;32679;40.810;14.498;2023-10-13T05:38:26;100770.16;;;19.50;100.00
46946;BME280;32679;40.810;14.498;2023-10-13T05:41:10;100770.50;;;19.66;100.00
46946;BME280;32679;40.810;14.498;2023-10-13T05:43:54;100773.59;;;19.89;100.00
46946;BME280;32679;40.810;14.498;2023-10-13T05:46:38;100762.06;;;20.25;100.00
46946;BME280;32679;40.810;14.498;2023-10-13T05:49:08;100767.59;;;20.47;100.00
46946;BME280;32679;40.810;14.498;2023-10-13T05:51:34;100753.38;;;20.54;100.00
46946;BME280;32679;40.810;14.498;2023-10-13T05:54:05;100786.34;;;21.12;100.00
46946;BME280;32679;40.810;14.498;2023-10-13T05:56:49;100777.91;;;21.47;100.00
46946;BME280;32679;40.810;14.498;2023-10-13T05:59:38;100792.06;;;21.77;100.00
46946;BME280;32679;40.810;14.498;2023-10-13T06:02:23;100803.84;;;22.33;100.00
46946;BME280;32679;40.810;14.498;2023-10-13T06:05:58;100784.63;;;22.44;98.69
46946;BME280;32679;40.810;14.498;2023-10-13T06:08:42;100802.00;;;23.17;95.37
46946;BME280;32679;40.810;14.498;2023-10-13T06:11:25;100805.44;;;23.28;92.88
46946;BME280;32679;40.810;14.498;2023-10-13T06:14:10;100828.72;;;23.63;91.63
46946;BME280;32679;40.810;14.498;2023-10-13T06:16:54;100830.59;;;23.89;89.50
46946;BME280;32679;40.810;14.498;2023-10-13T06:19:40;100834.56;;;24.12;87.59
46946;BME280;32679;40.810;14.498;2023-10-13T06:22:24;100830.94;;;23.91;89.04
46946;BME280;32679;40.810;14.498;2023-10-13T06:25:08;100825.56;;;23.57;92.02
46946;BME280;32679;40.810;14.498;2023-10-13T06:27:52;100827.53;;;23.80;90.79
46946;BME280;32679;40.810;14.498;2023-10-13T06:30:36;100832.50;;;23.76;90.74
46946;BME280;32679;40.810;14.498;2023-10-13T06:33:03;100850.63;;;23.19;93.10
46946;BME280;32679;40.810;14.498;2023-10-13T06:35:29;100843.28;;;23.21;94.38
46946;BME280;32679;40.810;14.498;2023-10-13T06:37:56;100838.91;;;22.93;95.79
46946;BME280;32679;40.810;14.498;2023-10-13T06:40:25;100840.09;;;22.69;97.86
46946;BME280;32679;40.810;14.498;2023-10-13T06:42:52;100852.53;;;22.52;99.46
46946;BME280;32679;40.810;14.498;2023-10-13T06:45:19;100832.84;;;22.68;98.46
46946;BME280;32679;40.810;14.498;2023-10-13T06:47:46;100845.59;;;23.07;97.11
46946;BME280;32679;40.810;14.498;2023-10-13T06:50:13;100853.72;;;23.28;94.85
46946;BME280;32679;40.810;14.498;2023-10-13T06:52:45;100849.28;;;23.04;97.12
46946;BME280;32679;40.810;14.498;2023-10-13T06:55:14;100857.13;;;23.83;93.50
46946;BME280;32679;40.810;14.498;2023-10-13T06:57:48;100851.06;;;23.81;93.70
46946;BME280;32679;40.810;14.498;2023-10-13T07:00:14;100864.66;;;23.49;96.00
46946;BME280;32679;40.810;14.498;2023-10-13T07:02:54;100865.50;;;24.26;91.43
46946;BME280;32679;40.810;14.498;2023-10-13T07:05:33;100859.78;;;24.10;91.67
46946;BME280;32679;40.810;14.498;2023-10-13T07:08:00;100861.50;;;23.87;93.77
46946;BME280;32679;40.810;14.498;2023-10-13T07:10:26;100839.56;;;23.88;93.45
46946;BME280;32679;40.810;14.498;2023-10-13T07:12:55;100862.34;;;23.84;95.21
46946;BME280;32679;40.810;14.498;2023-10-13T07:15:25;100857.06;;;23.23;100.00
46946;BME280;32679;40.810;14.498;2023-10-13T07:17:53;100844.47;;;23.24;100.00
46946;BME280;32679;40.810;14.498;2023-10-13T07:20:25;100861.19;;;23.18;100.00
46946;BME280;32679;40.810;14.498;2023-10-13T07:22:53;100848.25;;;22.67;100.00
46946;BME280;32679;40.810;14.498;2023-10-13T07:25:55;100868.00;;;23.01;100.00
46946;BME280;32679;40.810;14.498;2023-10-13T07:28:28;100862.84;;;23.16;100.00
46946;BME280;32679;40.810;14.498;2023-10-13T07:30:53;100871.09;;;23.30;100.00
46946;BME280;32679;40.810;14.498;2023-10-13T07:33:19;100849.56;;;23.33;100.00
46946;BME280;32679;40.810;14.498;2023-10-13T07:35:48;100878.44;;;23.91;97.75
46946;BME280;32679;40.810;14.498;2023-10-13T07:38:24;100878.75;;;24.52;92.05
46946;BME280;32679;40.810;14.498;2023-10-13T07:40:49;100886.09;;;24.14;95.03
46946;BME280;32679;40.810;14.498;2023-10-13T07:43:18;100875.91;;;23.96;96.10
46946;BME280;32679;40.810;14.498;2023-10-13T07:45:47;100876.97;;;24.59;91.88
46946;BME280;32679;40.810;14.498;2023-10-13T07:48:17;100895.34;;;25.06;88.81
46946;BME280;32679;40.810;14.498;2023-10-13T07:50:59;100869.78;;;24.34;92.06
46946;BME280;32679;40.810;14.498;2023-10-13T07:53:44;100896.50;;;25.54;83.98
46946;BME280;32679;40.810;14.498;2023-10-13T07:56:10;100884.38;;;26.08;81.67
46946;BME280;32679;40.810;14.498;2023-10-13T07:58:39;100895.47;;;27.34;73.30
46946;BME280;32679;40.810;14.498;2023-10-13T08:01:13;100894.84;;;27.17;73.95
46946;BME280;32679;40.810;14.498;2023-10-13T08:03:44;100887.94;;;27.62;68.87
46946;BME280;32679;40.810;14.498;2023-10-13T08:06:11;100889.31;;;27.57;68.39
46946;BME280;32679;40.810;14.498;2023-10-13T08:08:38;100894.75;;;26.70;73.57
46946;BME280;32679;40.810;14.498;2023-10-13T08:11:14;100901.13;;;26.86;73.57
46946;BME280;32679;40.810;14.498;2023-10-13T08:13:59;100894.06;;;26.66;73.69
46946;BME280;32679;40.810;14.498;2023-10-13T08:16:26;100870.78;;;26.80;70.66
46946;BME280;32679;40.810;14.498;2023-10-13T08:19:16;100902.00;;;27.22;70.44
46946;BME280;32679;40.810;14.498;2023-10-13T08:21:44;100889.66;;;27.25;69.02
46946;BME280;32679;40.810;14.498;2023-10-13T08:24:23;100874.53;;;27.37;68.37
46946;BME280;32679;40.810;14.498;2023-10-13T08:27:18;100894.22;;;27.57;67.88
46946;BME280;32679;40.810;14.498;2023-10-13T08:30:14;100895.09;;;26.72;69.26
46946;BME280;32679;40.810;14.498;2023-10-13T08:32:51;100874.72;;;25.77;74.35
46946;BME280;32679;40.810;14.498;2023-10-13T08:35:21;100885.03;;;25.87;74.85
46946;BME280;32679;40.810;14.498;2023-10-13T08:37:55;100868.13;;;25.80;73.93
46946;BME280;32679;40.810;14.498;2023-10-13T08:40:23;100878.41;;;26.32;70.78
46946;BME280;32679;40.810;14.498;2023-10-13T08:43:12;100883.81;;;25.72;74.55
46946;BME280;32679;40.810;14.498;2023-10-13T08:45:42;100887.63;;;25.52;75.88
46946;BME280;32679;40.810;14.498;2023-10-13T08:48:09;100879.22;;;25.16;77.10
46946;BME280;32679;40.810;14.498;2023-10-13T08:50:44;100878.91;;;25.43;75.94
46946;BME280;32679;40.810;14.498;2023-10-13T08:53:30;100879.81;;;25.98;73.38
46946;BME280;32679;40.810;14.498;2023-10-13T08:56:04;100876.91;;;25.56;75.17
46946;BME280;32679;40.810;14.498;2023-10-13T08:58:48;100880.22;;;25.55;74.88
46946;BME280;32679;40.810;14.498;2023-10-13T09:04:15;100880.41;;;26.19;71.62
46946;BME280;32679;40.810;14.498;2023-10-13T09:07:05;100871.38;;;25.95;70.92
46946;BME280;32679;40.810;14.498;2023-10-13T09:09:32;100873.16;;;25.59;72.76
46946;BME280;32679;40.810;14.498;2023-10-13T09:12:16;100880.63;;;25.70;71.81
46946;BME280;32679;40.810;14.498;2023-10-13T09:14:44;100890.09;;;25.50;72.58
46946;BME280;32679;40.810;14.498;2023-10-13T09:17:23;100868.31;;;25.44;72.61
46946;BME280;32679;40.810;14.498;2023-10-13T09:19:59;100884.16;;;25.74;71.35
46946;BME280;32679;40.810;14.498;2023-10-13T09:22:37;100862.69;;;25.85;70.18
46946;BME280;32679;40.810;14.498;2023-10-13T09:25:03;100880.38;;;26.48;67.16
46946;BME280;32679;40.810;14.498;2023-10-13T09:27:32;100875.06;;;26.21;67.73
46946;BME280;32679;40.810;14.498;2023-10-13T09:30:05;100878.97;;;26.27;66.79
46946;BME280;32679;40.810;14.498;2023-10-13T09:33:04;100879.78;;;26.66;65.05
46946;BME280;32679;40.810;14.498;2023-10-13T09:35:30;100877.25;;;26.93;63.01
46946;BME280;32679;40.810;14.498;2023-10-13T09:37:59;100875.66;;;26.92;63.48
46946;BME280;32679;40.810;14.498;2023-10-13T09:40:28;100856.38;;;26.45;64.23
46946;BME280;32679;40.810;14.498;2023-10-13T09:43:03;100859.56;;;26.22;65.45
46946;BME280;32679;40.810;14.498;2023-10-13T09:45:41;100867.81;;;26.45;64.94
46946;BME280;32679;40.810;14.498;2023-10-13T09:48:37;100875.81;;;25.96;66.71
46946;BME280;32679;40.810;14.498;2023-10-13T09:51:14;100873.53;;;26.03;67.30
46946;BME280;32679;40.810;14.498;2023-10-13T09:53:52;100873.69;;;26.12;66.11
46946;BME280;32679;40.810;14.498;2023-10-13T09:56:32;100860.78;;;26.08;66.18
46946;BME280;32679;40.810;14.498;2023-10-13T09:59:16;100879.66;;;26.82;63.36
46946;BME280;32679;40.810;14.498;2023-10-13T10:01:45;100877.00;;;27.48;60.50
46946;BME280;32679;40.810;14.498;2023-10-13T10:04:22;100877.28;;;28.06;58.22
46946;BME280;32679;40.810;14.498;2023-10-13T10:09:29;100884.81;;;29.25;53.03
46946;BME280;32679;40.810;14.498;2023-10-13T10:14:56;100871.28;;;29.80;50.63
46946;BME280;32679;40.810;14.498;2023-10-13T10:17:27;100852.66;;;29.20;51.92
46946;BME280;32679;40.810;14.498;2023-10-13T10:19:55;100865.38;;;29.19;51.52
46946;BME280;32679;40.810;14.498;2023-10-13T10:22:34;100858.53;;;29.72;49.98
46946;BME280;32679;40.810;14.498;2023-10-13T10:25:05;100865.66;;;29.12;50.64
46946;BME280;32679;40.810;14.498;2023-10-13T10:28:01;100866.66;;;29.92;48.89
46946;BME280;32679;40.810;14.498;2023-10-13T10:30:32;100850.84;;;29.96;48.81
46946;BME280;32679;40.810;14.498;2023-10-13T10:33:04;100851.31;;;30.13;48.69
46946;BME280;32679;40.810;14.498;2023-10-13T10:35:38;100827.94;;;30.39;47.66
46946;BME280;32679;40.810;14.498;2023-10-13T10:38:11;100851.00;;;30.11;48.69
46946;BME280;32679;40.810;14.498;2023-10-13T10:40:57;100846.91;;;30.78;46.78
46946;BME280;32679;40.810;14.498;2023-10-13T10:46:25;100845.03;;;29.72;48.85
46946;BME280;32679;40.810;14.498;2023-10-13T10:48:52;100836.56;;;29.60;49.16
46946;BME280;32679;40.810;14.498;2023-10-13T10:51:27;100830.34;;;29.80;49.57
46946;BME280;32679;40.810;14.498;2023-10-13T10:54:02;100842.66;;;30.32;48.66
46946;BME280;32679;40.810;14.498;2023-10-13T10:56:37;100842.66;;;30.32;48.26
46946;BME280;32679;40.810;14.498;2023-10-13T10:59:06;100833.84;;;30.77;46.79
46946;BME280;32679;40.810;14.498;2023-10-13T11:01:45;100833.88;;;29.56;50.47
46946;BME280;32679;40.810;14.498;2023-10-13T11:04:19;100830.84;;;29.14;51.60
46946;BME280;32679;40.810;14.498;2023-10-13T11:09:13;100816.34;;;29.72;49.82
46946;BME280;32679;40.810;14.498;2023-10-13T11:12:17;100823.25;;;28.80;53.24
46946;BME280;32679;40.810;14.498;2023-10-13T11:15:04;100827.78;;;29.17;52.69
46946;BME280;32679;40.810;14.498;2023-10-13T11:17:39;100812.28;;;28.29;54.82
46946;BME280;32679;40.810;14.498;2023-10-13T11:20:12;100783.88;;;29.30;51.72
46946;BME280;32679;40.810;14.498;2023-10-13T11:22:41;100811.56;;;29.14;51.90
46946;BME280;32679;40.810;14.498;2023-10-13T11:25:20;100815.41;;;29.30;52.09
46946;BME280;32679;40.810;14.498;2023-10-13T11:27:48;100810.53;;;28.81;53.71
46946;BME280;32679;40.810;14.498;2023-10-13T11:30:17;100800.88;;;28.38;54.49
46946;BME280;32679;40.810;14.498;2023-10-13T11:35:22;100803.91;;;29.11;52.52
46946;BME280;32679;40.810;14.498;2023-10-13T11:37:52;100801.22;;;28.40;53.44
46946;BME280;32679;40.810;14.498;2023-10-13T11:40:38;100800.38;;;27.99;55.65
46946;BME280;32679;40.810;14.498;2023-10-13T11:43:24;100777.78;;;27.92;56.07
46946;BME280;32679;40.810;14.498;2023-10-13T11:45:51;100775.75;;;27.71;56.63
46946;BME280;32679;40.810;14.498;2023-10-13T11:48:45;100779.50;;;27.89;55.78
46946;BME280;32679;40.810;14.498;2023-10-13T11:51:19;100784.72;;;27.38;57.62
46946;BME280;32679;40.810;14.498;2023-10-13T11:53:58;100775.31;;;27.37;57.21
46946;BME280;32679;40.810;14.498;2023-10-13T11:56:24;100780.22;;;27.59;56.89
46946;BME280;32679;40.810;14.498;2023-10-13T11:58:50;100777.44;;;27.90;57.21
46946;BME280;32679;40.810;14.498;2023-10-13T12:01:16;100782.53;;;27.95;56.14
46946;BME280;32679;40.810;14.498;2023-10-13T12:03:49;100760.38;;;27.33;58.04
46946;BME280;32679;40.810;14.498;2023-10-13T12:06:35;100762.44;;;27.55;57.72
46946;BME280;32679;40.810;14.498;2023-10-13T12:09:20;100761.09;;;27.25;58.64
46946;BME280;32679;40.810;14.498;2023-10-13T12:11:47;100762.47;;;27.33;59.64
46946;BME280;32679;40.810;14.498;2023-10-13T12:14:15;100771.72;;;27.90;57.07
46946;BME280;32679;40.810;14.498;2023-10-13T12:16:49;100763.84;;;26.94;60.23
46946;BME280;32679;40.810;14.498;2023-10-13T12:19:22;100762.69;;;27.26;59.03
46946;BME280;32679;40.810;14.498;2023-10-13T12:21:54;100761.38;;;27.61;58.81
46946;BME280;32679;40.810;14.498;2023-10-13T12:24:27;100754.06;;;26.82;60.81
46946;BME280;32679;40.810;14.498;2023-10-13T12:27:02;100754.78;;;26.95;61.08
46946;BME280;32679;40.810;14.498;2023-10-13T12:29:39;100755.03;;;27.66;57.86
46946;BME280;32679;40.810;14.498;2023-10-13T12:32:11;100748.97;;;27.11;58.93
46946;BME280;32679;40.810;14.498;2023-10-13T12:34:38;100723.25;;;27.64;56.84
46946;BME280;32679;40.810;14.498;2023-10-13T12:37:30;100746.44;;;27.13;59.38
46946;BME280;32679;40.810;14.498;2023-10-13T12:40:15;100729.41;;;27.10;59.41
46946;BME280;32679;40.810;14.498;2023-10-13T12:43:00;100746.13;;;27.64;58.95
46946;BME280;32679;40.810;14.498;2023-10-13T12:45:49;100739.38;;;27.71;58.16
46946;BME280;32679;40.810;14.498;2023-10-13T12:48:36;100738.69;;;27.01;60.85
46946;BME280;32679;40.810;14.498;2023-10-13T12:51:20;100744.22;;;26.83;62.96
46946;BME280;32679;40.810;14.498;2023-10-13T12:53:52;100729.81;;;27.21;62.05
46946;BME280;32679;40.810;14.498;2023-10-13T12:56:19;100725.25;;;26.89;62.67
46946;BME280;32679;40.810;14.498;2023-10-13T12:58:51;100716.78;;;27.42;60.70
46946;BME280;32679;40.810;14.498;2023-10-13T13:01:23;100729.78;;;27.65;59.92
46946;BME280;32679;40.810;14.498;2023-10-13T13:03:51;100719.28;;;26.96;61.50
46946;BME280;32679;40.810;14.498;2023-10-13T13:06:22;100719.44;;;27.36;61.22
46946;BME280;32679;40.810;14.498;2023-10-13T13:08:58;100729.16;;;27.92;59.74
46946;BME280;32679;40.810;14.498;2023-10-13T13:11:24;100702.59;;;27.07;62.58
46946;BME280;32679;40.810;14.498;2023-10-13T13:13:49;100723.16;;;27.46;61.66
46946;BME280;32679;40.810;14.498;2023-10-13T13:16:18;100693.44;;;27.12;62.49
46946;BME280;32679;40.810;14.498;2023-10-13T13:18:45;100724.59;;;26.85;66.13
46946;BME280;32679;40.810;14.498;2023-10-13T13:21:11;100713.31;;;27.47;63.55
46946;BME280;32679;40.810;14.498;2023-10-13T13:23:46;100709.09;;;27.30;64.35
46946;BME280;32679;40.810;14.498;2023-10-13T13:26:11;100697.78;;;27.26;63.84
46946;BME280;32679;40.810;14.498;2023-10-13T13:28:46;100715.88;;;26.88;65.57
46946;BME280;32679;40.810;14.498;2023-10-13T13:31:16;100708.38;;;26.82;65.97
46946;BME280;32679;40.810;14.498;2023-10-13T13:33:41;100704.03;;;26.90;65.18
46946;BME280;32679;40.810;14.498;2023-10-13T13:36:13;100690.47;;;26.81;65.45